createdAt,value
2018-07-07T00:01:51.624Z,4.47
2018-07-07T00:04:18.611Z,3.80
2018-07-07T00:06:45.606Z,4.07
2018-07-07T00:09:12.655Z,4.93
2018-07-07T00:11:39.654Z,4.37
2018-07-07T00:14:06.660Z,4.13
2018-07-07T00:16:33.793Z,3.80
2018-07-07T00:19:00.803Z,4.43
2018-07-07T00:21:27.802Z,4.13
2018-07-07T00:23:54.917Z,4.03
2018-07-07T00:26:22.990Z,4.80
2018-07-07T00:28:49.973Z,5.20
2018-07-07T00:31:17.000Z,4.33
2018-07-07T00:33:44.080Z,4.83
2018-07-07T00:38:46.594Z,5.75
2018-07-07T00:41:13.586Z,4.63
2018-07-07T00:43:40.662Z,4.50
2018-07-07T00:46:07.677Z,5.30
2018-07-07T00:48:34.670Z,5.17
2018-07-07T00:51:01.704Z,5.37
2018-07-07T00:53:28.749Z,4.90
2018-07-07T00:55:55.751Z,5.33
2018-07-07T00:58:22.778Z,5.77
2018-07-07T01:00:49.807Z,5.40
2018-07-07T01:03:16.802Z,5.63
2018-07-07T01:05:43.813Z,4.67
2018-07-07T01:08:10.848Z,5.20
2018-07-07T01:10:37.839Z,5.40
2018-07-07T01:13:04.916Z,4.80
2018-07-07T01:15:31.969Z,5.20
2018-07-07T01:17:59.788Z,5.07
2018-07-07T01:20:26.799Z,5.53
2018-07-07T01:22:53.835Z,5.13
2018-07-07T01:25:20.818Z,5.07
2018-07-07T01:27:47.818Z,5.90
2018-07-07T01:30:14.850Z,5.63
2018-07-07T01:32:41.848Z,6.17
2018-07-07T01:35:08.850Z,6.00
2018-07-07T01:37:36.668Z,5.60
2018-07-07T01:40:04.558Z,5.57
2018-07-07T01:42:31.571Z,4.90
2018-07-07T01:44:58.602Z,5.83
2018-07-07T01:47:25.604Z,6.27
2018-07-07T01:49:53.452Z,6.17
2018-07-07T01:52:20.488Z,6.13
2018-07-07T01:57:25.995Z,7.12
2018-07-07T01:59:53.005Z,6.50
2018-07-07T02:02:20.982Z,6.07
2018-07-07T02:04:48.749Z,6.50
2018-07-07T02:07:15.750Z,6.70
2018-07-07T02:09:42.755Z,6.33
2018-07-07T02:12:10.631Z,6.97
2018-07-07T02:14:37.640Z,7.20
2018-07-07T02:17:05.504Z,7.67
2018-07-07T02:19:32.532Z,7.40
2018-07-07T02:22:00.010Z,7.53
2018-07-07T02:24:26.993Z,7.17
2018-07-07T02:26:54.029Z,7.00
2018-07-07T02:29:21.026Z,8.20
2018-07-07T02:31:48.115Z,6.83
2018-07-07T02:34:15.149Z,7.00
2018-07-07T02:36:43.089Z,6.67
2018-07-07T02:39:10.183Z,6.70
2018-07-07T02:41:37.223Z,7.00
2018-07-07T02:44:04.212Z,7.00
2018-07-07T02:46:31.294Z,6.00
2018-07-07T02:48:58.321Z,5.57
2018-07-07T02:51:25.335Z,5.70
2018-07-07T02:53:52.334Z,4.70
2018-07-07T02:56:20.318Z,4.77
2018-07-07T02:58:47.312Z,5.03
2018-07-07T03:01:14.306Z,5.70
2018-07-07T03:03:41.332Z,4.87
2018-07-07T03:06:08.339Z,5.40
2018-07-07T03:08:35.341Z,5.60
2018-07-07T03:11:03.239Z,5.07
2018-07-07T03:16:09.625Z,5.55
2018-07-07T03:18:36.615Z,5.30
2018-07-07T03:21:04.555Z,4.53
2018-07-07T03:23:31.596Z,5.03
2018-07-07T03:25:58.585Z,5.43
2018-07-07T03:28:25.573Z,6.40
2018-07-07T03:30:52.610Z,6.23
2018-07-07T03:33:19.981Z,5.97
2018-07-07T03:35:47.825Z,5.90
2018-07-07T03:38:15.841Z,5.67
2018-07-07T03:40:42.840Z,6.10
2018-07-07T03:43:09.835Z,5.70
2018-07-07T03:45:36.892Z,6.23
2018-07-07T03:48:04.831Z,6.17
2018-07-07T03:50:31.928Z,6.13
2018-07-07T03:52:58.971Z,6.37
2018-07-07T03:55:26.293Z,6.70
2018-07-07T03:57:52.970Z,6.10
2018-07-07T04:03:02.527Z,6.90
2018-07-07T04:05:29.556Z,6.10
2018-07-07T04:07:56.556Z,7.07
2018-07-07T04:10:24.420Z,7.10
2018-07-07T04:12:51.438Z,8.63
2018-07-07T04:15:18.421Z,8.17
2018-07-07T04:17:46.159Z,8.43
2018-07-07T04:20:13.200Z,7.23
2018-07-07T04:22:40.195Z,7.23
2018-07-07T04:25:07.194Z,6.60
2018-07-07T04:27:34.221Z,6.63
2018-07-07T04:30:01.210Z,6.73
2018-07-07T04:32:28.991Z,6.90
2018-07-07T04:34:56.018Z,6.07
2018-07-07T04:37:23.027Z,7.20
2018-07-07T04:39:50.981Z,6.73
2018-07-07T04:42:18.004Z,7.23
2018-07-07T04:44:45.015Z,7.33
2018-07-07T04:47:12.238Z,6.80
2018-07-07T04:49:39.276Z,6.23
2018-07-07T04:52:06.290Z,6.13
2018-07-07T04:54:33.288Z,6.50
2018-07-07T04:57:00.321Z,6.10
2018-07-07T04:59:28.150Z,6.73
2018-07-07T05:01:55.154Z,6.47
2018-07-07T05:04:22.194Z,6.77
2018-07-07T05:06:49.185Z,7.30
2018-07-07T05:09:16.241Z,6.30
2018-07-07T05:11:43.293Z,7.27
2018-07-07T05:14:10.293Z,7.40
2018-07-07T05:16:37.278Z,6.67
2018-07-07T05:19:05.248Z,6.73
2018-07-07T05:24:10.699Z,8.07
2018-07-07T05:26:37.698Z,6.10
2018-07-07T05:29:04.681Z,6.77
2018-07-07T05:31:31.716Z,6.00
2018-07-07T05:33:58.721Z,6.20
2018-07-07T05:36:25.734Z,6.53
2018-07-07T05:38:52.769Z,6.03
2018-07-07T05:41:19.749Z,5.93
2018-07-07T05:43:46.750Z,6.30
2018-07-07T05:46:13.778Z,6.33
2018-07-07T05:48:40.821Z,6.67
2018-07-07T05:51:08.511Z,6.53
2018-07-07T05:53:35.545Z,6.97
2018-07-07T05:56:03.396Z,7.03
2018-07-07T05:58:31.745Z,6.93
2018-07-07T06:00:58.847Z,6.93
2018-07-07T06:03:25.860Z,6.40
2018-07-07T06:05:52.882Z,6.60
2018-07-07T06:08:19.912Z,7.63
2018-07-07T06:10:46.929Z,8.20
2018-07-07T06:13:13.970Z,7.97
2018-07-07T06:15:41.169Z,7.60
2018-07-07T06:18:08.189Z,7.97
2018-07-07T06:20:35.194Z,7.53
2018-07-07T06:23:02.227Z,6.47
2018-07-07T06:25:29.232Z,6.33
2018-07-07T06:27:56.236Z,6.63
2018-07-07T06:30:23.646Z,7.00
2018-07-07T06:32:50.652Z,6.70
2018-07-07T06:35:17.674Z,6.97
2018-07-07T06:37:44.708Z,6.83
2018-07-07T06:40:11.729Z,6.90
2018-07-07T06:45:17.273Z,7.90
2018-07-07T06:47:44.288Z,8.13
2018-07-07T06:50:11.284Z,7.10
2018-07-07T06:52:38.395Z,7.87
2018-07-07T06:55:05.423Z,7.73
2018-07-07T06:57:32.439Z,8.27
2018-07-07T06:59:59.626Z,7.97
2018-07-07T07:02:26.577Z,8.47
2018-07-07T07:04:53.577Z,7.33
2018-07-07T07:07:20.686Z,8.93
2018-07-07T07:09:47.687Z,7.70
2018-07-07T07:12:14.688Z,7.77
2018-07-07T07:14:42.593Z,7.53
2018-07-07T07:17:09.587Z,8.80
2018-07-07T07:22:16.730Z,7.78
2018-07-07T07:24:43.722Z,7.03
2018-07-07T07:27:10.711Z,7.33
2018-07-07T07:29:38.578Z,7.33
2018-07-07T07:32:05.572Z,6.20
2018-07-07T07:34:32.565Z,6.80
2018-07-07T07:36:59.731Z,6.70
2018-07-07T07:39:26.681Z,6.57
2018-07-07T07:41:53.674Z,5.90
2018-07-07T07:44:20.715Z,5.53
2018-07-07T07:46:47.710Z,6.00
2018-07-07T07:49:14.757Z,6.63
2018-07-07T07:51:41.779Z,6.30
2018-07-07T07:54:08.765Z,5.93
2018-07-07T07:56:35.765Z,6.00
2018-07-07T07:59:02.836Z,6.10
2018-07-07T08:01:30.847Z,6.33
2018-07-07T08:06:36.022Z,6.20
2018-07-07T08:09:03.981Z,5.87
2018-07-07T08:11:30.969Z,5.83
2018-07-07T08:13:58.003Z,6.07
2018-07-07T08:16:26.053Z,6.07
2018-07-07T08:18:53.146Z,5.50
2018-07-07T08:21:20.193Z,5.60
2018-07-07T08:23:47.186Z,6.40
2018-07-07T08:26:14.191Z,6.07
2018-07-07T08:28:41.252Z,4.70
2018-07-07T08:31:08.245Z,5.50
2018-07-07T08:33:35.234Z,6.13
2018-07-07T08:36:02.263Z,5.20
2018-07-07T08:38:29.259Z,5.47
2018-07-07T08:40:56.245Z,4.57
2018-07-07T08:43:23.263Z,4.77
2018-07-07T08:45:50.252Z,4.47
2018-07-07T08:48:17.242Z,4.30
2018-07-07T08:50:44.275Z,4.73
2018-07-07T08:53:12.085Z,4.47
2018-07-07T08:55:39.092Z,5.17
2018-07-07T08:58:06.103Z,3.87
2018-07-07T09:00:33.103Z,4.17
2018-07-07T09:03:00.100Z,3.17
2018-07-07T09:05:27.140Z,3.77
2018-07-07T09:07:54.142Z,3.40
2018-07-07T09:10:21.140Z,4.07
2018-07-07T09:12:48.167Z,3.40
2018-07-07T09:17:56.477Z,4.50
2018-07-07T09:20:24.336Z,4.53
2018-07-07T09:22:51.348Z,3.83
2018-07-07T09:25:18.491Z,3.77
2018-07-07T09:27:45.498Z,4.10
2018-07-07T09:30:12.501Z,4.53
2018-07-07T09:32:40.382Z,4.20
2018-07-07T09:35:07.413Z,3.70
2018-07-07T09:37:34.509Z,3.20
2018-07-07T09:40:01.558Z,2.93
2018-07-07T09:42:28.556Z,3.03
2018-07-07T09:44:55.546Z,3.33
2018-07-07T09:47:22.595Z,3.50
2018-07-07T09:49:49.592Z,3.90
2018-07-07T09:52:17.419Z,2.93
2018-07-07T09:54:44.528Z,3.30
2018-07-07T09:57:11.535Z,3.97
2018-07-07T09:59:38.553Z,3.70
2018-07-07T10:02:05.620Z,3.17
2018-07-07T10:04:32.653Z,3.03
2018-07-07T10:06:59.682Z,3.60
2018-07-07T10:09:27.583Z,3.43
2018-07-07T10:11:55.557Z,3.10
2018-07-07T10:14:23.630Z,3.30
2018-07-07T10:16:50.783Z,3.23
2018-07-07T10:19:17.896Z,4.00
2018-07-07T10:21:44.906Z,4.10
2018-07-07T10:24:11.983Z,4.77
2018-07-07T10:26:38.983Z,3.43
2018-07-07T10:29:05.995Z,3.57
2018-07-07T10:31:33.406Z,3.77
2018-07-07T10:34:00.443Z,3.80
2018-07-07T10:36:28.259Z,3.73
2018-07-07T10:41:35.814Z,3.72
2018-07-07T10:44:02.878Z,3.97
2018-07-07T10:46:29.883Z,3.80
2018-07-07T10:48:56.985Z,3.30
2018-07-07T10:51:23.920Z,3.23
2018-07-07T10:53:50.935Z,3.50
2018-07-07T10:56:17.953Z,3.57
2018-07-07T10:58:45.775Z,2.87
2018-07-07T11:01:13.804Z,3.07
2018-07-07T11:03:40.814Z,3.30
2018-07-07T11:06:07.861Z,3.27
2018-07-07T11:08:34.862Z,3.10
2018-07-07T11:11:01.879Z,2.90
2018-07-07T11:13:28.927Z,2.77
2018-07-07T11:15:55.932Z,3.03
2018-07-07T11:18:23.797Z,2.70
2018-07-07T11:20:50.850Z,2.40
2018-07-07T11:23:17.852Z,3.03
2018-07-07T11:25:44.859Z,2.37
2018-07-07T11:28:11.908Z,2.40
2018-07-07T11:30:38.999Z,2.20
2018-07-07T11:33:05.999Z,2.63
2018-07-07T11:35:33.045Z,2.90
2018-07-07T11:38:00.184Z,2.70
2018-07-07T11:40:27.271Z,3.30
2018-07-07T11:42:54.785Z,2.97
2018-07-07T11:45:21.923Z,2.87
2018-07-07T11:53:09.483Z,2.55
2018-07-07T11:55:36.551Z,2.90
2018-07-07T11:58:03.662Z,2.77
2018-07-07T12:00:30.787Z,2.63
2018-07-07T12:02:57.888Z,2.93
2018-07-07T12:05:24.920Z,2.87
2018-07-07T12:08:00.714Z,2.60
2018-07-07T12:10:19.014Z,2.47
2018-07-07T12:12:46.047Z,3.47
2018-07-07T12:15:13.091Z,4.10
2018-07-07T12:17:40.234Z,3.67
2018-07-07T12:20:07.235Z,3.40
2018-07-07T12:22:34.444Z,3.83
2018-07-07T12:25:01.505Z,3.97
2018-07-07T12:27:28.612Z,3.60
2018-07-07T12:29:55.632Z,3.47
2018-07-07T12:32:22.686Z,3.37
2018-07-07T12:34:51.624Z,4.43
2018-07-07T12:37:17.003Z,3.77
2018-07-07T12:39:44.038Z,3.43
2018-07-07T12:42:11.036Z,2.97
2018-07-07T12:44:38.857Z,3.13
2018-07-07T12:47:05.899Z,3.40
2018-07-07T12:49:32.901Z,3.10
2018-07-07T12:51:59.930Z,3.13
2018-07-07T12:54:26.934Z,3.53
2018-07-07T12:56:54.800Z,2.70
2018-07-07T12:59:21.796Z,2.63
2018-07-07T13:01:48.844Z,2.90
2018-07-07T13:04:15.853Z,2.90
2018-07-07T13:06:45.226Z,2.83
2018-07-07T13:09:12.263Z,2.37
2018-07-07T13:11:40.033Z,2.17
2018-07-07T13:16:46.429Z,2.47
2018-07-07T13:19:13.433Z,2.10
2018-07-07T13:21:40.438Z,2.60
2018-07-07T13:24:07.483Z,2.67
2018-07-07T13:26:35.367Z,2.53
2018-07-07T13:29:02.372Z,2.80
2018-07-07T13:31:29.405Z,2.60
2018-07-07T13:33:56.408Z,2.53
2018-07-07T13:36:23.499Z,2.23
2018-07-07T13:38:50.602Z,2.40
2018-07-07T13:41:17.593Z,2.27
2018-07-07T13:43:44.599Z,2.70
2018-07-07T13:46:11.646Z,2.37
2018-07-07T13:48:38.681Z,2.40
2018-07-07T13:51:05.774Z,2.30
2018-07-07T13:53:32.830Z,2.30
2018-07-07T13:55:59.842Z,2.40
2018-07-07T13:58:26.845Z,2.40
2018-07-07T14:00:53.890Z,2.67
2018-07-07T14:03:21.709Z,2.63
2018-07-07T14:05:48.711Z,2.83
2018-07-07T14:08:15.753Z,2.47
2018-07-07T14:10:42.760Z,2.47
2018-07-07T14:13:09.763Z,2.70
2018-07-07T14:15:36.814Z,2.40
2018-07-07T14:18:04.090Z,2.47
2018-07-07T14:23:12.502Z,2.10
2018-07-07T14:25:40.473Z,2.40
2018-07-07T14:28:07.479Z,3.10
2018-07-07T14:30:34.532Z,2.43
2018-07-07T14:33:01.531Z,2.30
2018-07-07T14:35:28.539Z,2.37
2018-07-07T14:37:55.600Z,2.50
2018-07-07T14:40:22.628Z,2.50
2018-07-07T14:42:50.558Z,2.27
2018-07-07T14:45:18.446Z,2.57
2018-07-07T14:47:45.433Z,2.40
2018-07-07T14:50:12.423Z,2.13
2018-07-07T14:52:39.473Z,1.83
2018-07-07T14:55:06.561Z,2.23
2018-07-07T14:57:33.575Z,2.20
2018-07-07T15:00:00.678Z,2.10
2018-07-07T15:02:27.729Z,2.50
2018-07-07T15:04:54.729Z,2.47
2018-07-07T15:07:21.814Z,2.37
2018-07-07T15:09:48.876Z,2.80
2018-07-07T15:12:15.882Z,2.37
2018-07-07T15:14:43.703Z,2.60
2018-07-07T15:17:10.730Z,2.40
2018-07-07T15:19:37.728Z,2.53
2018-07-07T15:22:04.719Z,2.37
2018-07-07T15:24:31.761Z,2.43
2018-07-07T15:26:58.747Z,2.50
2018-07-07T15:29:25.829Z,2.07
2018-07-07T15:31:52.869Z,2.13
2018-07-07T15:34:19.973Z,2.00
2018-07-07T15:39:28.293Z,1.60
2018-07-07T15:41:55.397Z,1.40
2018-07-07T15:44:23.358Z,1.40
2018-07-07T15:46:50.417Z,1.47
2018-07-07T15:49:17.415Z,1.70
2018-07-07T15:51:45.307Z,1.80
2018-07-07T15:54:12.343Z,1.80
2018-07-07T15:56:39.341Z,1.60
2018-07-07T15:59:06.328Z,1.70
2018-07-07T16:01:34.871Z,2.00
2018-07-07T16:04:01.892Z,1.80
2018-07-07T16:06:29.303Z,1.60
2018-07-07T16:08:56.350Z,1.70
2018-07-07T16:11:23.349Z,1.50
2018-07-07T16:13:50.342Z,1.50
2018-07-07T16:16:17.376Z,1.60
2018-07-07T16:18:44.390Z,1.40
2018-07-07T16:21:11.389Z,1.63
2018-07-07T16:23:38.439Z,1.73
2018-07-07T16:26:05.442Z,1.50
2018-07-07T16:28:32.468Z,1.60
2018-07-07T16:30:59.500Z,1.50
2018-07-07T16:33:26.512Z,1.50
2018-07-07T16:35:53.566Z,1.50
2018-07-07T16:38:20.552Z,1.73
2018-07-07T16:40:47.543Z,1.40
2018-07-07T16:43:14.589Z,1.43
2018-07-07T16:45:41.597Z,1.57
2018-07-07T16:50:46.662Z,1.57
2018-07-07T16:53:13.652Z,1.70
2018-07-07T16:55:40.645Z,1.77
2018-07-07T16:58:07.681Z,1.60
2018-07-07T17:00:34.693Z,1.53
2018-07-07T17:03:01.695Z,1.43
2018-07-07T17:05:28.736Z,1.40
2018-07-07T17:07:55.736Z,1.40
2018-07-07T17:10:22.737Z,1.53
2018-07-07T17:12:49.773Z,1.80
2018-07-07T17:15:17.718Z,1.70
2018-07-07T17:17:44.716Z,1.50
2018-07-07T17:20:11.754Z,1.70
2018-07-07T17:22:38.755Z,1.63
2018-07-07T17:25:05.756Z,1.80
2018-07-07T17:27:32.799Z,1.70
2018-07-07T17:30:00.545Z,1.60
2018-07-07T17:32:27.545Z,1.57
2018-07-07T17:34:54.603Z,2.43
2018-07-07T17:37:21.617Z,2.07
2018-07-07T17:45:08.750Z,1.50
2018-07-07T17:47:35.760Z,1.73
2018-07-07T17:50:02.750Z,1.40
2018-07-07T17:52:29.769Z,1.33
2018-07-07T17:54:56.777Z,1.30
2018-07-07T17:57:23.967Z,1.87
2018-07-07T17:59:52.209Z,1.83
2018-07-07T18:02:19.210Z,2.23
2018-07-07T18:04:46.623Z,1.80
2018-07-07T18:07:13.899Z,1.80
2018-07-07T18:09:41.475Z,2.20
2018-07-07T18:12:11.749Z,3.30
2018-07-07T18:14:37.043Z,2.90
2018-07-07T18:17:04.105Z,4.97
2018-07-07T18:19:32.750Z,4.80
2018-07-07T18:22:00.419Z,4.40
2018-07-07T18:24:26.806Z,3.90
2018-07-07T18:26:58.636Z,2.60
2018-07-07T18:29:22.663Z,3.30
2018-07-07T18:31:49.695Z,1.80
2018-07-07T18:34:16.667Z,1.97
2018-07-07T18:36:43.910Z,2.00
2018-07-07T18:41:49.749Z,2.20
2018-07-07T18:44:16.726Z,1.77
2018-07-07T18:46:44.011Z,2.07
2018-07-07T18:51:50.258Z,2.23
2018-07-07T18:54:18.167Z,1.97
2018-07-07T18:56:49.308Z,2.07
2018-07-07T18:59:15.971Z,2.00
2018-07-07T19:04:24.488Z,2.00
2018-07-07T19:06:51.769Z,2.40
2018-07-07T19:09:18.762Z,2.27
2018-07-07T19:11:46.943Z,2.27
2018-07-07T19:14:14.087Z,2.20
2018-07-07T19:16:41.075Z,2.00
2018-07-07T19:19:08.218Z,2.57
2018-07-07T19:21:35.643Z,2.40
2018-07-07T19:24:03.758Z,1.83
2018-07-07T19:26:30.876Z,1.77
2018-07-07T19:28:57.959Z,2.67
2018-07-07T19:31:25.022Z,1.97
2018-07-07T19:33:51.992Z,2.10
2018-07-07T19:36:19.095Z,2.10
2018-07-07T19:38:47.435Z,2.00
2018-07-07T19:41:14.434Z,2.23
2018-07-07T19:43:41.426Z,2.57
2018-07-07T19:46:08.526Z,2.80
2018-07-07T19:48:35.776Z,2.13
2018-07-07T19:51:02.701Z,2.53
2018-07-07T19:53:29.850Z,2.10
2018-07-07T19:55:57.514Z,2.30
2018-07-07T19:58:24.904Z,2.00
2018-07-07T20:00:52.056Z,2.87
2018-07-07T20:03:19.114Z,3.10
2018-07-07T20:08:27.151Z,2.42
2018-07-07T20:10:54.250Z,2.20
2018-07-07T20:13:21.617Z,2.33
2018-07-07T20:15:48.426Z,2.10
2018-07-07T20:18:15.914Z,2.20
2018-07-07T20:20:42.765Z,2.23
2018-07-07T20:23:09.867Z,2.07
2018-07-07T20:25:37.054Z,2.50
2018-07-07T20:28:04.212Z,2.07
2018-07-07T20:30:31.018Z,2.20
2018-07-07T20:32:58.077Z,2.30
2018-07-07T20:35:25.236Z,2.40
2018-07-07T20:37:52.216Z,2.60
2018-07-07T20:40:19.370Z,2.00
2018-07-07T20:42:46.388Z,2.23
2018-07-07T20:45:13.519Z,2.40
2018-07-07T20:47:40.673Z,2.77
2018-07-07T20:50:09.559Z,2.57
2018-07-07T20:52:36.721Z,2.10
2018-07-07T20:55:05.566Z,2.17
2018-07-07T20:57:32.444Z,2.50
2018-07-07T20:59:59.519Z,2.67
2018-07-07T21:02:27.377Z,2.80
2018-07-07T21:04:54.370Z,2.70
2018-07-07T21:07:21.382Z,2.57
2018-07-07T21:09:48.486Z,2.40
2018-07-07T21:12:15.563Z,2.73
2018-07-07T21:14:42.547Z,2.40
2018-07-07T21:19:48.935Z,2.60
2018-07-07T21:22:15.990Z,2.23
2018-07-07T21:24:42.969Z,2.10
2018-07-07T21:27:09.966Z,2.10
2018-07-07T21:29:37.063Z,2.50
2018-07-07T21:32:04.950Z,2.53
2018-07-07T21:34:31.938Z,2.73
2018-07-07T21:36:58.983Z,2.37
2018-07-07T21:39:25.969Z,2.43
2018-07-07T21:41:52.956Z,2.53
2018-07-07T21:44:19.988Z,2.57
2018-07-07T21:46:46.977Z,2.70
2018-07-07T21:49:18.811Z,2.40
2018-07-07T21:51:46.701Z,2.57
2018-07-07T21:54:14.658Z,2.60
2018-07-07T21:59:26.314Z,3.00
2018-07-07T22:01:54.117Z,2.93
2018-07-07T22:04:21.411Z,2.90
2018-07-07T22:09:29.876Z,3.08
2018-07-07T22:11:57.777Z,3.30
2018-07-07T22:14:24.109Z,2.60
2018-07-07T22:16:51.361Z,3.13
2018-07-07T22:22:06.442Z,2.90
2018-07-07T22:24:34.412Z,3.13
2018-07-07T22:27:02.492Z,2.67
2018-07-07T22:29:29.696Z,3.03
2018-07-07T22:31:56.608Z,3.03
2018-07-07T22:34:23.597Z,3.00
2018-07-07T22:36:50.584Z,3.27
2018-07-07T22:39:17.703Z,2.70
2018-07-07T22:41:44.690Z,3.27
2018-07-07T22:44:11.679Z,2.80
2018-07-07T22:46:38.719Z,3.43
2018-07-07T22:49:05.690Z,2.90
2018-07-07T22:51:32.672Z,2.90
2018-07-07T22:53:59.713Z,3.33
2018-07-07T22:56:26.700Z,3.17
2018-07-07T22:58:53.696Z,2.73
2018-07-07T23:01:20.757Z,3.20
2018-07-07T23:03:47.736Z,2.87
2018-07-07T23:06:14.720Z,3.03
2018-07-07T23:08:41.757Z,2.80
2018-07-07T23:11:08.741Z,2.77
2018-07-07T23:13:35.737Z,3.00
2018-07-07T23:16:02.801Z,3.13
2018-07-07T23:18:29.874Z,3.10
2018-07-07T23:20:56.866Z,2.90
2018-07-07T23:23:23.898Z,3.03
2018-07-07T23:25:50.897Z,2.87
2018-07-07T23:28:17.886Z,2.93
2018-07-07T23:30:44.943Z,2.83
2018-07-07T23:33:11.936Z,3.00
2018-07-07T23:35:38.932Z,3.10
2018-07-07T23:38:05.970Z,2.93
2018-07-07T23:43:11.470Z,3.15
2018-07-07T23:45:38.456Z,3.00
2018-07-07T23:48:05.452Z,3.50
2018-07-07T23:50:32.535Z,2.80
2018-07-07T23:52:59.501Z,2.70
2018-07-07T23:55:27.403Z,2.83
2018-07-07T23:57:54.353Z,2.87
